Estación Meteorológica Peña el Pijo (Robertgarden) [ 09/24/17 17:44:36 CEST ]

Fecha Hora Presion(HPa) Temp (°C) Humedad % Rocio (°C) Viento ( m/s) Direccion Lluvia 1Hora(mm) Lluvia 24H(mm) LLuvia Total(mm)
2017-Sep-18 01:01:47 1011.400 11.6 51 1.8         1457.65
2017-Sep-18 02:01:51 1011.400 12.6 47 1.5         1457.65
2017-Sep-18 03:02:08 1011.300 11.6 48 0.9         1457.65
2017-Sep-18 04:02:05 1011.000 10.1 53 0.9         1457.65
2017-Sep-18 05:02:03 1010.600 10.1 55 1.4         1457.65
2017-Sep-18 06:02:01 1010.500 8.9 59 1.3         1457.65
2017-Sep-18 07:01:53 1010.600 8.2 63 1.6         1457.65
2017-Sep-18 08:01:46 1011.000 7.4 67 1.7         1457.65
2017-Sep-18 09:01:37 1010.900 9.2 73 4.6         1457.65
2017-Sep-18 10:01:46 1010.700 18.8 45 6.6         1457.65
2017-Sep-18 11:01:43 1011.400 21.6 33 4.6         1457.65
2017-Sep-18 12:01:38 1011.800 23.6 25 2.7 1.3 NNW     1457.65
2017-Sep-18 13:01:35 1011.600 24.6 23 1.9 3.3 WNW     1457.65
2017-Sep-18 14:01:36 1011.500 25.8 22 2.9         1457.65
2017-Sep-18 15:01:30 1011.300 26.1 23 3.1         1457.65
2017-Sep-18 16:01:29 1011.000 26.4 23 3.4         1457.65
2017-Sep-18 17:01:39 1010.600 25.9 24 3.5         1457.65
2017-Sep-18 18:01:49 1011.000 24.9 27 4.5         1457.65
2017-Sep-18 19:01:41 1011.300 22.5 31 4.5         1457.65
2017-Sep-18 20:01:52 1011.700 20.1 34 3.6         1457.65
2017-Sep-18 21:01:38 1012.400 17.3 40 3.6         1457.65
2017-Sep-18 22:01:38 1013.300 16.7 44 4.3 1.8 N     1457.65
2017-Sep-18 23:01:41 1013.800 13.9 49 3.4         1457.65

Temperatura Máxima:26°    Temperatura Mínima:
Presión Máxima:1013.800 Hpa    Presión Mínima:1010.500 Hpa


Volver